Portada
METAR-TAF:

METAR-TAF

Aeropuertos :

Ghriss, Argelia

latitud: 35-12N, longitud: 000-08E, altitud: 514 m

Observación

El informe se hizo hace 23 minutos, a las 05:00 UTC
Viento calma
Temperatura 8°C
Humedad 93%
Presión 1013 hPa
Visibilidad: 8000 m

METAR: DAOV 210500Z 00000KT 8000 NSC 08/07 Q1013

Hora: 06:23 (05:23 UTC)

Pronóstico

El informe se hizo hace 6 horas y 23 minutos, a las 23:00 UTC
Pronóstico válido del 21 a las 00 UTC al 21 a las 09 UTC
Viento 2 kt con dirección variable
Visibilidad 10 km o más
Escasas nubes a una altura de 3000 ft
Probabilidad 30% :
Temporalmente
del 21 a las 02 UTC al 21 a las 08 UTC
Visibilidad: 3000 m
Cielo nuboso a una altura de 1000 ft
neblina

TAF: DAOV 202300Z 2100/2109 VRB02KT 9999 FEW030 PROB30 TEMPO 2102/2108 3000 BR BKN010

Observaciones y pronósticos meteorológicos de más de 4000 aeropuertos (mensajes METAR y TAF).

Los puntos amarillos y rojos representan las estaciones disponibles.

Ponga el ratón en el punto deseado para ver el nombre de la estación.

Haga clic para ver las observaciones y los pronósticos meteorológicos.

Para cambiar el mapa : haga clic en los botones verdes con una cruz de color negro para hacer un zoom, en el botón verde con un guión para alejar o en las flechas verdes para mapas adyacentes.


METAR-TAF: